Time;durP1;ratioP1;P1;durP2;ratioP2;P2;SDS_P1;SDS_P2;PMS_P1;PMS_P2;Temp;Humidity;BMP_temperature;BMP_pressure;BME280_temperature;BME280_humidity;BME280_pressure;Samples;Min_cycle;Max_cycle;Signal;HPM_P1;HPM_P2
2023/07/24 00:01:54;;;;;;;7.50;6.70;;;;;;;18.32;100.00;100039.67;104695;1261;62018;-60
2023/07/24 00:04:21;;;;;;;7.80;6.40;;;;;;;18.33;100.00;100040.06;104809;1260;61266;-60
2023/07/24 00:06:48;;;;;;;7.40;6.60;;;;;;;18.34;100.00;100039.61;104797;1261;73398;-60
2023/07/24 00:09:15;;;;;;;9.70;6.70;;;;;;;18.33;100.00;100040.43;105013;1265;67189;-75
2023/07/24 00:11:42;;;;;;;8.60;6.70;;;;;;;18.32;100.00;100038.98;104468;1261;71329;-60
2023/07/24 00:14:09;;;;;;;7.50;6.40;;;;;;;18.30;100.00;100038.44;104852;1260;61123;-60
2023/07/24 00:16:36;;;;;;;8.20;6.90;;;;;;;18.27;100.00;100041.98;104817;1265;61385;-60
2023/07/24 00:19:03;;;;;;;10.50;6.10;;;;;;;18.25;100.00;100040.41;105034;1262;73968;-73
2023/07/24 00:21:30;;;;;;;11.00;6.10;;;;;;;18.23;100.00;100041.55;105117;1260;67182;-73
2023/07/24 00:23:57;;;;;;;7.90;6.60;;;;;;;18.23;100.00;100041.33;104776;1263;72534;-62
2023/07/24 00:26:24;;;;;;;6.10;5.40;;;;;;;18.21;100.00;100044.20;104887;1264;61233;-61
2023/07/24 00:28:52;;;;;;;10.30;5.90;;;;;;;18.18;100.00;100044.30;105158;1260;61203;-76
2023/07/24 00:31:20;;;;;;;9.90;5.70;;;;;;;18.15;100.00;100048.46;104964;1259;75042;-62
2023/07/24 00:33:47;;;;;;;6.20;5.30;;;;;;;18.11;100.00;100046.45;104960;1264;65938;-62
2023/07/24 00:36:14;;;;;;;5.90;5.20;;;;;;;18.06;100.00;100047.48;104750;1261;72441;-62
2023/07/24 00:38:41;;;;;;;8.30;5.60;;;;;;;18.00;100.00;100045.69;104838;1261;61270;-62
2023/07/24 00:41:08;;;;;;;9.40;5.90;;;;;;;17.94;100.00;100051.44;104759;1261;61354;-60
2023/07/24 00:43:36;;;;;;;6.80;5.90;;;;;;;17.88;100.00;100052.48;105067;1262;73268;-74
2023/07/24 00:46:03;;;;;;;7.80;5.10;;;;;;;17.83;100.00;100056.18;104828;1262;65819;-61
2023/07/24 00:48:30;;;;;;;6.10;5.20;;;;;;;17.77;100.00;100056.13;104753;1260;71180;-60
2023/07/24 00:50:57;;;;;;;6.10;5.30;;;;;;;17.72;100.00;100053.33;105012;1264;61246;-67
2023/07/24 00:53:24;;;;;;;7.10;5.00;;;;;;;17.67;100.00;100051.27;104562;1260;61279;-75
2023/07/24 00:55:51;;;;;;;6.60;5.30;;;;;;;17.64;100.00;100052.83;104823;1262;75223;-60
2023/07/24 00:58:18;;;;;;;6.10;5.30;;;;;;;17.61;100.00;100052.82;104648;1268;66119;-62
2023/07/24 01:00:45;;;;;;;7.80;4.50;;;;;;;17.59;100.00;100053.48;104661;1267;72791;-60
2023/07/24 01:03:12;;;;;;;6.40;5.40;;;;;;;17.58;100.00;100052.91;104835;1260;61326;-75
2023/07/24 01:05:41;;;;;;;6.10;4.80;;;;;;;17.58;100.00;100057.98;104760;1262;61344;-61
2023/07/24 01:08:08;;;;;;;7.20;5.00;;;;;;;17.58;100.00;100056.73;104772;1261;73304;-63
2023/07/24 01:10:35;;;;;;;8.00;5.10;;;;;;;17.59;100.00;100060.28;104677;1265;65919;-63
2023/07/24 01:13:07;;;;;;;5.80;5.20;;;;;;;17.59;100.00;100060.13;105129;1261;72502;-75
2023/07/24 01:15:38;;;;;;;5.80;4.70;;;;;;;17.58;100.00;100062.02;104536;1265;61517;-61
2023/07/24 01:18:09;;;;;;;7.20;4.70;;;;;;;17.59;100.00;100059.64;104658;1262;61179;-60
2023/07/24 01:20:37;;;;;;;;;;;;;;;17.59;100.00;100057.66;104694;1265;74573;-62
2023/07/24 01:23:32;;;;;;;6.10;4.50;;;;;;;17.58;100.00;100058.84;105179;1261;67050;-75
2023/07/24 01:26:02;;;;;;;5.60;4.40;;;;;;;17.56;100.00;100057.53;104679;1262;71260;-60
2023/07/24 01:28:29;;;;;;;5.40;4.40;;;;;;;17.57;100.00;100059.70;104454;1261;61452;-62
2023/07/24 01:30:57;;;;;;;6.50;5.30;;;;;;;17.57;100.00;100058.98;104374;1262;61277;-75
2023/07/24 01:33:24;;;;;;;7.80;5.00;;;;;;;17.58;100.00;100064.14;104794;1262;74675;-61
2023/07/24 01:35:54;;;;;;;6.10;4.80;;;;;;;17.58;100.00;100059.25;104868;1262;65912;-60
2023/07/24 01:38:21;;;;;;;5.90;4.90;;;;;;;17.56;100.00;100062.27;104600;1263;73433;-61
2023/07/24 01:40:48;;;;;;;6.20;4.70;;;;;;;17.54;100.00;100065.45;105114;1261;61867;-65
2023/07/24 01:43:15;;;;;;;8.00;5.10;;;;;;;17.49;100.00;100072.27;104410;1265;61658;-62
2023/07/24 01:45:42;;;;;;;6.90;4.60;;;;;;;17.44;100.00;100076.91;104899;1263;74683;-61
2023/07/24 01:48:09;;;;;;;6.70;4.60;;;;;;;17.39;100.00;100081.44;104825;1261;67249;-61
2023/07/24 01:50:36;;;;;;;6.30;4.60;;;;;;;17.34;100.00;100078.11;104759;1265;72765;-60
2023/07/24 01:53:03;;;;;;;6.00;4.70;;;;;;;17.29;100.00;100077.97;104820;1262;61360;-65
2023/07/24 01:55:30;;;;;;;6.60;4.90;;;;;;;17.22;100.00;100075.70;104491;1265;61182;-59
2023/07/24 01:57:57;;;;;;;5.80;4.90;;;;;;;17.15;100.00;100081.63;104674;1261;73534;-63
2023/07/24 02:00:24;;;;;;;7.90;5.50;;;;;;;17.11;100.00;100079.67;107928;1262;67117;-59
2023/07/24 02:02:57;;;;;;;9.80;5.50;;;;;;;17.07;100.00;100079.48;104919;1265;72230;-65
2023/07/24 02:05:24;;;;;;;5.80;4.70;;;;;;;17.05;100.00;100081.57;104762;1265;61248;-70
2023/07/24 02:07:51;;;;;;;7.20;5.40;;;;;;;17.02;100.00;100080.23;104800;1262;61244;-61
2023/07/24 02:10:18;;;;;;;11.70;5.00;;;;;;;17.02;100.00;100079.86;104787;1262;74661;-64
2023/07/24 02:12:46;;;;;;;7.30;5.50;;;;;;;17.00;100.00;100086.39;105616;1261;65968;-61
2023/07/24 02:15:13;;;;;;;7.40;5.30;;;;;;;17.00;100.00;100088.82;104597;1264;72711;-59
2023/07/24 02:17:42;;;;;;;7.60;5.20;;;;;;;17.08;100.00;100091.20;104508;1265;61360;-61
2023/07/24 02:20:10;;;;;;;7.60;4.80;;;;;;;17.20;100.00;100090.89;104749;1260;61280;-59
2023/07/24 02:22:37;;;;;;;5.70;4.70;;;;;;;17.36;100.00;100092.92;104686;1265;74866;-58
2023/07/24 02:25:06;;;;;;;6.20;4.60;;;;;;;17.58;100.00;100100.36;105090;1262;65804;-74
2023/07/24 02:27:34;;;;;;;5.50;4.50;;;;;;;17.77;100.00;100098.66;104705;1262;72666;-59
2023/07/24 02:30:01;;;;;;;7.60;5.20;;;;;;;17.90;100.00;100096.82;104786;1265;61365;-59
2023/07/24 02:32:28;;;;;;;6.80;5.00;;;;;;;18.08;100.00;100101.27;104562;1260;61347;-59
2023/07/24 02:34:56;;;;;;;6.60;4.70;;;;;;;18.20;100.00;100099.27;104940;1265;74434;-68
2023/07/24 02:37:23;;;;;;;8.00;5.00;;;;;;;18.28;100.00;100102.02;105094;1265;66473;-74
2023/07/24 02:39:52;;;;;;;6.50;4.30;;;;;;;18.32;100.00;100100.79;104718;1262;73146;-60
2023/07/24 02:42:20;;;;;;;8.00;4.80;;;;;;;18.33;100.00;100104.86;104745;1262;62463;-61
2023/07/24 02:44:47;;;;;;;6.30;4.70;;;;;;;18.32;100.00;100103.05;104564;1262;61128;-61
2023/07/24 02:47:14;;;;;;;9.20;4.90;;;;;;;18.32;100.00;100108.70;104495;1263;72331;-75
2023/07/24 02:49:41;;;;;;;6.00;4.60;;;;;;;18.31;100.00;100107.52;104762;1261;68714;-60
2023/07/24 02:52:08;;;;;;;6.00;4.50;;;;;;;18.27;100.00;100105.14;104860;1263;318776;-60
2023/07/24 02:54:34;;;;;;;6.10;4.40;;;;;;;18.26;100.00;100102.47;104683;1261;61930;-60
2023/07/24 02:57:02;;;;;;;5.20;4.00;;;;;;;18.28;100.00;100095.56;104720;1262;61264;-64
2023/07/24 02:59:29;;;;;;;7.40;4.40;;;;;;;18.35;100.00;100097.05;105122;1264;73474;-75
2023/07/24 03:01:57;;;;;;;6.80;3.90;;;;;;;18.47;100.00;100097.98;104743;1262;66734;-60
2023/07/24 03:04:24;;;;;;;5.20;3.50;;;;;;;18.86;100.00;100099.61;104747;1265;71468;-60
2023/07/24 03:06:51;;;;;;;5.50;3.40;;;;;;;19.55;100.00;100096.77;105014;1262;61200;-75
2023/07/24 03:09:18;;;;;;;5.30;4.00;;;;;;;20.30;100.00;100096.95;104751;1265;61158;-61
2023/07/24 03:11:45;;;;;;;3.90;3.50;;;;;;;21.04;100.00;100092.46;104998;1265;72568;-65
2023/07/24 03:14:12;;;;;;;4.50;4.00;;;;;;;21.81;100.00;100083.91;104511;1264;67724;-61
2023/07/24 03:16:39;;;;;;;3.90;3.50;;;;;;;22.50;100.00;100059.87;104807;1262;72684;-59
2023/07/24 03:19:06;;;;;;;6.40;3.50;;;;;;;23.07;100.00;100042.68;104999;1262;62241;-74
2023/07/24 03:21:33;;;;;;;5.60;3.80;;;;;;;23.54;100.00;100025.08;104914;1261;61123;-73
2023/07/24 03:24:01;;;;;;;4.60;3.40;;;;;;;24.01;100.00;100013.79;104792;1261;73547;-60
2023/07/24 03:26:28;;;;;;;6.40;3.60;;;;;;;24.49;100.00;100004.98;104893;1265;65978;-61
2023/07/24 03:28:56;;;;;;;3.80;3.30;;;;;;;24.96;100.00;99996.40;105160;1262;72351;-72
2023/07/24 03:31:23;;;;;;;4.00;3.50;;;;;;;25.58;100.00;99990.60;104671;1261;61184;-62
2023/07/24 03:33:50;;;;;;;4.10;2.70;;;;;;;26.17;100.00;99981.64;104695;1267;61280;-61
2023/07/24 03:36:17;;;;;;;3.80;3.10;;;;;;;26.69;100.00;99983.35;104952;1262;74875;-61
2023/07/24 03:38:44;;;;;;;4.20;3.00;;;;;;;27.08;100.00;99977.98;104799;1265;67491;-61
2023/07/24 03:41:11;;;;;;;3.70;3.00;;;;;;;27.59;100.00;99980.93;104701;1262;72819;-61
2023/07/24 03:43:38;;;;;;;5.80;3.10;;;;;;;28.12;100.00;99980.60;105186;1259;61407;-61
2023/07/24 03:46:06;;;;;;;4.80;2.90;;;;;;;28.66;100.00;99981.85;104534;1263;61263;-61
2023/07/24 03:48:34;;;;;;;3.70;2.90;;;;;;;29.10;100.00;99985.71;104850;1263;73229;-61
2023/07/24 03:51:01;;;;;;;3.90;3.00;;;;;;;29.51;100.00;99985.95;104822;1261;67721;-63
2023/07/24 03:53:28;;;;;;;3.40;2.60;;;;;;;29.96;100.00;99984.52;104468;1263;72818;-71
2023/07/24 03:55:55;;;;;;;3.80;2.50;;;;;;;30.27;100.00;99988.10;104507;1264;61231;-64
2023/07/24 03:58:22;;;;;;;4.10;2.60;;;;;;;30.44;100.00;99992.09;104631;1262;61287;-64
2023/07/24 04:00:49;;;;;;;4.30;2.00;;;;;;;30.59;100.00;99991.71;104826;1260;74427;-63
2023/07/24 04:03:16;;;;;;;3.90;2.70;;;;;;;30.90;100.00;99987.02;105081;1262;67032;-68
2023/07/24 04:05:43;;;;;;;3.50;2.00;;;;;;;31.39;100.00;99988.35;104524;1262;71951;-63
2023/07/24 04:08:11;;;;;;;3.10;2.40;;;;;;;31.69;100.00;99985.83;104718;1262;61277;-64
2023/07/24 04:10:38;;;;;;;3.70;2.00;;;;;;;31.98;100.00;99990.67;104757;1265;61180;-65
2023/07/24 04:13:05;;;;;;;5.40;2.10;;;;;;;32.21;99.85;99988.38;104757;1262;72965;-62
2023/07/24 04:15:32;;;;;;;4.00;2.40;;;;;;;32.55;96.96;99982.65;104816;1265;67223;-70
2023/07/24 04:17:59;;;;;;;3.10;2.10;;;;;;;32.98;92.07;99988.08;104732;1262;63980;-64
2023/07/24 04:20:26;;;;;;;2.50;2.10;;;;;;;33.33;80.60;99988.73;104428;1264;61354;-62
2023/07/24 04:22:53;;;;;;;2.60;1.90;;;;;;;33.40;79.58;99991.88;104690;1262;61266;-63
2023/07/24 04:25:20;;;;;;;3.80;2.50;;;;;;;33.54;74.79;99992.66;104945;1262;65879;-72
2023/07/24 04:27:47;;;;;;;3.60;2.00;;;;;;;33.55;74.57;99994.77;104758;1261;61349;-64
2023/07/24 04:30:14;;;;;;;2.90;2.10;;;;;;;33.56;71.77;99996.52;104756;1265;72518;-67
2023/07/24 04:32:42;;;;;;;4.40;2.60;;;;;;;33.24;69.45;99997.11;104778;1262;61340;-63
2023/07/24 04:35:09;;;;;;;3.50;2.20;;;;;;;32.86;74.95;99996.80;104996;1262;61709;-65
2023/07/24 04:37:36;;;;;;;3.70;2.30;;;;;;;32.67;75.05;99996.38;104752;1262;74982;-63
2023/07/24 04:40:04;;;;;;;2.70;2.20;;;;;;;32.47;77.81;99998.66;104836;1261;61570;-68
2023/07/24 04:42:31;;;;;;;3.90;2.10;;;;;;;32.48;80.89;100000.02;104805;1262;62732;-64
2023/07/24 04:44:58;;;;;;;3.60;2.40;;;;;;;32.65;80.17;99996.00;104787;1265;61238;-63
2023/07/24 04:47:25;;;;;;;4.40;2.10;;;;;;;32.98;77.61;100000.11;104725;1265;61179;-63
2023/07/24 04:49:52;;;;;;;3.00;2.30;;;;;;;33.24;72.50;100002.13;104738;1265;65785;-63
2023/07/24 04:52:19;;;;;;;3.30;2.10;;;;;;;33.31;69.44;100001.95;104743;1265;61145;-67
2023/07/24 04:54:46;;;;;;;3.00;2.30;;;;;;;33.40;71.23;100003.98;104865;1262;71799;-64
2023/07/24 04:57:13;;;;;;;2.50;1.90;;;;;;;33.54;69.35;100004.95;104989;1265;61343;-69
2023/07/24 04:59:40;;;;;;;3.10;2.60;;;;;;;33.74;67.25;100003.92;104656;1265;61227;-64
2023/07/24 05:02:07;;;;;;;2.80;2.00;;;;;;;33.94;67.42;100000.63;104790;1265;65991;-64
2023/07/24 05:04:34;;;;;;;3.50;1.90;;;;;;;34.25;63.81;99999.89;104878;1262;61285;-72
2023/07/24 05:07:01;;;;;;;3.20;2.20;;;;;;;34.50;59.48;100002.54;104686;1262;63919;-71
2023/07/24 05:09:28;;;;;;;3.50;2.20;;;;;;;34.66;58.34;100001.06;104391;1262;61242;-62
2023/07/24 05:11:56;;;;;;;3.10;2.00;;;;;;;34.83;54.24;99998.12;104730;1262;61220;-63
2023/07/24 05:14:22;;;;;;;4.20;2.60;;;;;;;34.83;53.47;99996.97;104712;1262;64915;-63
2023/07/24 05:16:50;;;;;;;2.80;2.30;;;;;;;34.80;54.00;99994.80;104893;1265;61340;-69
2023/07/24 05:19:17;;;;;;;5.20;2.50;;;;;;;34.87;52.90;99994.34;104646;1265;62878;-72
2023/07/24 05:21:43;;;;;;;2.40;1.70;;;;;;;35.17;53.06;99993.70;104667;1265;61510;-63
2023/07/24 05:24:10;;;;;;;4.00;2.20;;;;;;;35.48;49.63;99992.25;104689;1265;61317;-64
2023/07/24 05:26:37;;;;;;;4.50;2.50;;;;;;;35.66;48.04;99989.81;104729;1265;66107;-64
2023/07/24 05:29:05;;;;;;;4.00;2.70;;;;;;;35.66;45.99;99984.16;104947;1263;61202;-71
2023/07/24 05:31:34;;;;;;;3.20;2.70;;;;;;;35.43;45.73;99983.30;104720;1262;64544;-72
2023/07/24 05:34:03;;;;;;;5.40;2.40;;;;;;;35.27;46.95;99981.36;104655;1262;61295;-62
2023/07/24 05:36:30;;;;;;;3.00;2.40;;;;;;;35.27;47.46;99980.05;104831;1262;61258;-63
2023/07/24 05:38:58;;;;;;;3.70;2.70;;;;;;;35.43;46.29;99978.45;105081;1262;64871;-63
2023/07/24 05:41:25;;;;;;;2.50;2.20;;;;;;;35.67;46.05;99978.60;104699;1262;61274;-63
2023/07/24 05:43:52;;;;;;;3.80;2.30;;;;;;;35.73;44.81;99977.95;104766;1265;71415;-64
2023/07/24 05:46:20;;;;;;;3.50;2.70;;;;;;;35.85;46.28;99979.01;104619;1262;61355;-63
2023/07/24 05:48:47;;;;;;;3.00;2.50;;;;;;;36.19;45.23;99977.45;104656;1263;61288;-64
2023/07/24 05:51:14;;;;;;;3.70;2.60;;;;;;;36.39;42.10;99979.41;104680;1265;64819;-63
2023/07/24 05:53:41;;;;;;;3.60;2.20;;;;;;;36.27;40.32;99981.70;104759;1265;61307;-64
2023/07/24 05:56:10;;;;;;;2.60;2.10;;;;;;;35.92;40.54;99987.20;104814;1265;63926;-63
2023/07/24 05:58:37;;;;;;;2.60;2.10;;;;;;;35.52;43.83;99991.23;104784;1262;61266;-63
2023/07/24 06:01:04;;;;;;;4.00;2.50;;;;;;;35.64;43.94;99991.71;104912;1263;61350;-68
2023/07/24 06:03:31;;;;;;;3.10;2.30;;;;;;;35.82;43.10;99995.01;104777;1265;66081;-61
2023/07/24 06:05:58;;;;;;;4.60;1.90;;;;;;;35.74;42.33;99994.84;104748;1262;61264;-66
2023/07/24 06:08:25;;;;;;;3.20;2.10;;;;;;;35.53;42.51;99992.97;104678;1265;64149;-63
2023/07/24 06:10:52;;;;;;;8.70;6.50;;;;;;;35.29;41.75;99994.73;104742;1262;61731;-62
2023/07/24 06:13:20;;;;;;;4.90;3.50;;;;;;;34.89;42.77;99990.83;105030;1262;61255;-63
2023/07/24 06:15:48;;;;;;;3.10;2.10;;;;;;;34.68;46.05;99992.14;104810;1265;66584;-64
2023/07/24 06:18:15;;;;;;;3.20;2.40;;;;;;;34.88;45.78;99995.07;104738;1262;61366;-64
2023/07/24 06:20:42;;;;;;;3.80;2.90;;;;;;;34.96;45.97;99991.82;104794;1263;63928;-63
2023/07/24 06:23:09;;;;;;;4.00;3.00;;;;;;;34.91;45.30;99989.63;104731;1261;61159;-64
2023/07/24 06:25:36;;;;;;;4.90;2.10;;;;;;;35.05;46.73;99993.59;104718;1262;61353;-63
2023/07/24 06:28:03;;;;;;;2.30;1.80;;;;;;;35.42;45.50;99993.83;104806;1265;65911;-63
2023/07/24 06:30:30;;;;;;;2.90;2.00;;;;;;;35.77;43.96;99990.48;104963;1265;61131;-67
2023/07/24 06:32:57;;;;;;;2.60;1.80;;;;;;;36.02;43.82;99991.27;104656;1265;64642;-64
2023/07/24 06:35:24;;;;;;;3.70;2.60;;;;;;;36.18;38.43;99987.51;104758;1262;61255;-62
2023/07/24 06:37:51;;;;;;;3.30;1.80;;;;;;;35.83;38.72;99991.14;104737;1261;61366;-62
2023/07/24 06:40:19;;;;;;;2.40;1.60;;;;;;;35.47;39.66;99990.90;104572;1265;65977;-68
2023/07/24 06:42:46;;;;;;;5.50;2.20;;;;;;;35.27;39.60;99990.19;104729;1265;61164;-64
2023/07/24 06:45:13;;;;;;;2.40;1.40;;;;;;;35.28;40.42;99991.20;104981;1265;64178;-65
2023/07/24 06:47:40;;;;;;;2.90;1.50;;;;;;;35.50;41.00;99991.76;104403;1263;61265;-65
2023/07/24 06:50:07;;;;;;;2.30;1.70;;;;;;;35.81;39.97;99993.81;104809;1261;61243;-65
2023/07/24 06:52:34;;;;;;;2.30;1.70;;;;;;;36.12;39.05;99989.97;104813;1263;65920;-64
2023/07/24 06:55:02;;;;;;;2.30;1.70;;;;;;;36.36;37.73;99985.48;104557;1265;61306;-64
2023/07/24 06:57:29;;;;;;;2.60;1.90;;;;;;;36.40;37.07;99985.08;104812;1263;62722;-64
2023/07/24 06:59:56;;;;;;;2.00;1.60;;;;;;;36.27;37.36;99984.63;104597;1265;61168;-63
2023/07/24 07:02:23;;;;;;;2.60;1.50;;;;;;;36.19;37.45;99983.27;104568;1262;61245;-62
2023/07/24 07:04:50;;;;;;;3.20;1.60;;;;;;;36.17;36.74;99981.60;104648;1264;66620;-62
2023/07/24 07:07:17;;;;;;;2.10;1.50;;;;;;;35.92;35.63;99980.85;104714;1262;61386;-62
2023/07/24 07:09:44;;;;;;;4.90;1.90;;;;;;;35.32;36.84;99980.21;104718;1263;64112;-63
2023/07/24 07:12:11;;;;;;;1.90;1.50;;;;;;;34.98;39.17;99979.80;104401;1262;61164;-62
2023/07/24 07:14:38;;;;;;;3.70;2.40;;;;;;;35.05;39.63;99978.11;105148;1265;61324;-67
2023/07/24 07:17:05;;;;;;;2.20;1.60;;;;;;;34.99;40.03;99980.45;105030;1265;66599;-64
2023/07/24 07:19:32;;;;;;;2.80;1.50;;;;;;;34.83;42.15;99980.70;104667;1262;61326;-64
2023/07/24 07:21:59;;;;;;;2.60;1.70;;;;;;;35.01;42.21;99976.78;104687;1263;63846;-62
2023/07/24 07:24:26;;;;;;;3.10;1.60;;;;;;;35.39;41.15;99979.44;104806;1265;61118;-67
2023/07/24 07:26:53;;;;;;;2.60;1.80;;;;;;;35.79;39.45;99979.23;104980;1262;61261;-65
2023/07/24 07:29:20;;;;;;;2.30;1.80;;;;;;;35.91;37.91;99982.61;104881;1265;65963;-65
2023/07/24 07:31:47;;;;;;;2.40;1.70;;;;;;;36.01;38.39;99980.95;104829;1263;61289;-64
2023/07/24 07:34:14;;;;;;;3.30;2.00;;;;;;;36.04;36.78;99975.89;104677;1262;63790;-64
2023/07/24 07:36:41;;;;;;;3.20;1.60;;;;;;;35.90;36.80;99977.00;104830;1261;61501;-63
2023/07/24 07:39:09;;;;;;;3.70;2.20;;;;;;;35.67;37.95;99976.91;104874;1264;61233;-64
2023/07/24 07:41:36;;;;;;;3.40;1.90;;;;;;;35.66;39.59;99979.83;104949;1262;66244;-63
2023/07/24 07:44:03;;;;;;;2.50;1.90;;;;;;;35.94;40.02;99976.46;105110;1261;61117;-64
2023/07/24 07:46:30;;;;;;;2.60;1.80;;;;;;;36.27;38.94;99971.92;105817;1261;62735;-67
2023/07/24 07:48:58;;;;;;;2.70;1.80;;;;;;;36.67;37.36;99973.31;105216;1265;59866;-67
2023/07/24 07:51:26;;;;;;;2.40;1.90;;;;;;;36.90;35.42;99974.35;105152;1265;61304;-63
2023/07/24 07:53:53;;;;;;;5.30;1.90;;;;;;;36.92;34.14;99978.48;105253;1264;66448;-63
2023/07/24 07:56:20;;;;;;;6.40;2.60;;;;;;;36.80;33.62;99980.57;105121;1264;62913;-68
2023/07/24 07:58:47;;;;;;;3.50;1.90;;;;;;;36.50;35.48;99979.65;104980;1265;63778;-67
2023/07/24 08:01:14;;;;;;;3.00;2.00;;;;;;;36.52;35.13;99981.86;104629;1265;61279;-64
2023/07/24 08:03:41;;;;;;;2.60;1.90;;;;;;;36.64;35.43;99982.13;104748;1265;61194;-62
2023/07/24 08:06:08;;;;;;;3.10;1.90;;;;;;;36.91;34.39;99980.82;104733;1263;64737;-63
2023/07/24 08:08:35;;;;;;;7.60;2.10;;;;;;;36.87;34.64;99983.79;104706;1263;61293;-64
2023/07/24 08:11:06;;;;;;;3.90;2.10;;;;;;;36.49;34.67;99987.70;104724;1262;64165;-68
2023/07/24 08:13:34;;;;;;;3.50;2.40;;;;;;;35.78;36.98;99992.60;104942;1261;61358;-62
2023/07/24 08:16:03;;;;;;;3.10;1.90;;;;;;;35.19;38.18;99994.29;105072;1265;60762;-64
2023/07/24 08:18:30;;;;;;;3.60;2.00;;;;;;;34.88;38.19;99994.69;106685;1260;65545;-63
2023/07/24 08:20:57;;;;;;;3.00;2.10;;;;;;;34.75;37.95;99994.53;105143;1263;61355;-63
2023/07/24 08:23:24;;;;;;;2.50;1.90;;;;;;;34.69;39.68;99993.17;107640;1261;64778;-63
2023/07/24 08:25:54;;;;;;;3.80;2.30;;;;;;;34.53;40.23;99994.71;105213;1264;59674;-62
2023/07/24 08:28:22;;;;;;;3.90;2.50;;;;;;;33.97;40.59;99995.20;105113;1268;61120;-63
2023/07/24 08:30:58;;;;;;;4.00;2.70;;;;;;;33.27;42.97;99999.83;104693;1265;66783;-63
2023/07/24 08:33:26;;;;;;;2.90;2.40;;;;;;;32.76;44.78;99997.36;105026;1266;67231;-62
2023/07/24 08:36:03;;;;;;;3.10;2.30;;;;;;;32.34;48.32;99997.84;105068;1265;71337;-63
2023/07/24 08:38:30;;;;;;;3.90;2.20;;;;;;;32.13;49.78;99994.36;104730;1264;61288;-63
2023/07/24 08:41:07;;;;;;;3.20;2.40;;;;;;;31.89;52.09;99994.94;104831;1265;61624;-61
2023/07/24 08:43:36;;;;;;;3.80;2.30;;;;;;;31.93;53.65;99991.77;104945;1265;73769;-62
2023/07/24 08:46:04;;;;;;;5.90;3.10;;;;;;;32.16;53.37;99991.53;105531;1263;61261;-62
2023/07/24 08:48:38;;;;;;;3.50;2.90;;;;;;;32.35;52.83;99988.79;104946;1265;63937;-63
2023/07/24 08:51:09;;;;;;;3.90;2.60;;;;;;;32.64;49.40;99986.16;105043;1266;62757;-63
2023/07/24 08:53:38;;;;;;;4.10;2.50;;;;;;;33.11;46.59;99984.10;105081;1263;61270;-62
2023/07/24 08:56:06;;;;;;;3.60;2.50;;;;;;;33.57;44.05;99979.94;105356;1267;74897;-68
2023/07/24 08:58:33;;;;;;;3.50;2.20;;;;;;;33.78;44.05;99975.55;104940;1263;67368;-63
2023/07/24 09:01:00;;;;;;;3.50;2.10;;;;;;;33.72;43.62;99970.46;105039;1263;64173;-64
2023/07/24 09:03:28;;;;;;;3.60;2.90;;;;;;;33.46;43.97;99975.66;105304;1263;61281;-61
2023/07/24 09:05:55;;;;;;;3.10;2.30;;;;;;;33.43;45.27;99978.89;105297;1263;61248;-62
2023/07/24 09:08:29;;;;;;;3.80;2.60;;;;;;;33.43;41.79;99979.13;105369;1261;64669;-65
2023/07/24 09:10:56;;;;;;;4.30;2.70;;;;;;;33.45;41.70;99975.71;105189;1265;61132;-62
2023/07/24 09:13:23;;;;;;;2.80;2.40;;;;;;;33.68;42.15;99975.89;105184;1265;63915;-63
2023/07/24 09:15:50;;;;;;;2.70;2.30;;;;;;;33.84;40.74;99976.55;105198;1263;61334;-61
2023/07/24 09:18:18;;;;;;;3.60;2.30;;;;;;;33.70;39.54;99975.71;105185;1267;61305;-63
2023/07/24 09:20:45;;;;;;;2.90;2.30;;;;;;;33.32;39.37;99974.97;104866;1263;65509;-68
2023/07/24 09:23:12;;;;;;;3.00;2.60;;;;;;;32.95;42.01;99972.56;104483;1266;67507;-62
2023/07/24 09:25:45;;;;;;;4.70;2.70;;;;;;;32.94;43.06;99966.96;104617;1265;71880;-63
2023/07/24 09:28:16;;;;;;;4.30;2.70;;;;;;;33.04;42.83;99972.36;104733;1265;61264;-64
2023/07/24 09:30:58;;;;;;;4.70;2.70;;;;;;;33.26;41.87;99971.92;104582;1263;61276;-68
2023/07/24 09:33:38;;;;;;;3.40;2.80;;;;;;;33.61;40.36;99972.02;104722;1262;64787;-62
2023/07/24 09:36:07;;;;;;;2.90;2.10;;;;;;;33.90;38.91;99963.21;104467;1266;61244;-66
2023/07/24 09:38:35;;;;;;;3.20;2.60;;;;;;;34.07;38.07;99959.72;104672;1268;62874;-65
2023/07/24 09:41:05;;;;;;;3.40;2.60;;;;;;;34.19;36.87;99963.18;104636;1264;61299;-62
2023/07/24 09:43:33;;;;;;;4.70;2.70;;;;;;;34.47;35.12;99958.98;104729;1265;61235;-62
2023/07/24 09:46:09;;;;;;;3.50;2.60;;;;;;;34.84;34.57;99958.52;104463;1266;66501;-68
2023/07/24 09:48:38;;;;;;;3.40;2.90;;;;;;;35.22;35.01;99956.08;104710;1265;61268;-62
2023/07/24 09:51:08;;;;;;;3.10;2.20;;;;;;;35.71;34.69;99951.61;104730;1266;63964;-63
2023/07/24 09:53:38;;;;;;;3.50;2.50;;;;;;;36.11;33.07;99947.00;104667;1266;61382;-63
2023/07/24 09:56:06;;;;;;;3.90;2.50;;;;;;;36.15;31.77;99948.30;104381;1266;61495;-63
2023/07/24 09:58:34;;;;;;;3.00;2.20;;;;;;;35.85;31.49;99947.87;104714;1262;64822;-61
2023/07/24 10:01:05;;;;;;;2.70;1.90;;;;;;;35.56;31.73;99946.17;104743;1266;61221;-62
2023/07/24 10:03:43;;;;;;;7.80;2.40;;;;;;;35.33;31.16;99941.91;104759;1266;64072;-61
2023/07/24 10:06:14;;;;;;;3.10;2.50;;;;;;;35.04;32.53;99940.55;104452;1263;61279;-67
2023/07/24 10:08:41;;;;;;;3.30;2.60;;;;;;;34.88;33.47;99937.50;104640;1263;61214;-62
2023/07/24 10:11:09;;;;;;;3.40;2.20;;;;;;;34.92;32.95;99935.64;104694;1265;66078;-63
2023/07/24 10:13:36;;;;;;;4.50;2.70;;;;;;;35.11;32.26;99934.04;104785;1265;61387;-68
2023/07/24 10:16:06;;;;;;;3.10;2.50;;;;;;;35.21;31.51;99933.40;104545;1271;62635;-65
2023/07/24 10:18:35;;;;;;;3.10;2.50;;;;;;;35.33;31.24;99929.92;104609;1261;61456;-64
2023/07/24 10:21:03;;;;;;;3.80;2.90;;;;;;;35.60;31.25;99931.67;104871;1265;61428;-64
2023/07/24 10:23:30;;;;;;;3.00;2.10;;;;;;;35.91;31.10;99933.23;104764;1264;66047;-67
2023/07/24 10:26:03;;;;;;;3.00;2.50;;;;;;;36.01;29.85;99933.81;104672;1265;61164;-64
2023/07/24 10:28:39;;;;;;;2.80;2.10;;;;;;;36.14;30.42;99933.17;104999;1261;62722;-68
2023/07/24 10:31:26;;;;;;;2.80;2.10;;;;;;;36.45;29.09;99931.80;104716;1267;61241;-63
2023/07/24 10:33:54;;;;;;;3.60;2.20;;;;;;;36.79;27.72;99923.83;104553;1267;61110;-63
2023/07/24 10:36:22;;;;;;;5.40;2.50;;;;;;;36.96;27.10;99927.25;104845;1263;65892;-67
2023/07/24 10:38:54;;;;;;;2.90;1.70;;;;;;;36.99;26.44;99924.65;104715;1265;61248;-65
2023/07/24 10:41:21;;;;;;;3.70;2.30;;;;;;;37.04;25.44;99922.68;104936;1263;64141;-67
2023/07/24 10:43:50;;;;;;;3.10;2.00;;;;;;;37.01;25.48;99920.33;104785;1266;61283;-65
2023/07/24 10:46:19;;;;;;;2.90;1.90;;;;;;;37.01;25.54;99922.04;105090;1267;61363;-66
2023/07/24 10:48:48;;;;;;;3.70;1.90;;;;;;;37.13;25.53;99926.84;104800;1266;66498;-64
2023/07/24 10:51:15;;;;;;;2.70;1.60;;;;;;;37.05;25.33;99920.92;104855;1265;61326;-63
2023/07/24 10:53:46;;;;;;;4.00;1.80;;;;;;;36.84;25.15;99917.14;104811;1265;63778;-62
2023/07/24 10:56:14;;;;;;;3.30;2.00;;;;;;;36.79;25.52;99916.85;104589;1268;61276;-69
2023/07/24 10:58:41;;;;;;;3.10;2.20;;;;;;;36.81;25.36;99915.25;104666;1266;61221;-64
2023/07/24 11:01:09;;;;;;;4.00;2.10;;;;;;;36.66;25.05;99917.98;104684;1264;66135;-62
2023/07/24 11:03:37;;;;;;;2.90;2.10;;;;;;;36.49;25.13;99916.36;104812;1265;61223;-64
2023/07/24 11:06:04;;;;;;;2.70;2.10;;;;;;;36.30;25.02;99912.48;104753;1267;62646;-61
2023/07/24 11:08:32;;;;;;;3.30;1.70;;;;;;;36.21;25.62;99912.05;104774;1264;61498;-61
2023/07/24 11:11:01;;;;;;;2.70;1.90;;;;;;;36.14;25.61;99914.40;104796;1262;61197;-63
2023/07/24 11:13:28;;;;;;;2.30;1.60;;;;;;;36.02;25.53;99907.17;104763;1267;66112;-64
2023/07/24 11:15:55;;;;;;;2.00;1.70;;;;;;;36.10;25.68;99907.36;104733;1261;61357;-64
2023/07/24 11:18:26;;;;;;;2.30;1.90;;;;;;;36.26;25.19;99913.29;104709;1261;63959;-67
2023/07/24 11:21:11;;;;;;;2.40;1.80;;;;;;;36.30;24.03;99907.60;104616;1264;61295;-63
2023/07/24 11:23:45;;;;;;;2.90;1.80;;;;;;;36.11;23.93;99906.63;104760;1265;61273;-63